createdAt,value
2022-10-24T00:00:09.719Z,88.26
2022-10-24T00:02:59.048Z,88.23
2022-10-24T00:05:27.467Z,88.27
2022-10-24T00:07:55.813Z,88.43
2022-10-24T00:11:24.547Z,88.39
2022-10-24T00:13:54.579Z,88.56
2022-10-24T00:16:22.912Z,88.79
2022-10-24T00:18:51.624Z,88.81
2022-10-24T00:21:20.227Z,88.84
2022-10-24T00:23:48.598Z,88.79
2022-10-24T00:26:17.021Z,88.86
2022-10-24T00:28:45.986Z,88.91
2022-10-24T00:31:16.620Z,88.97
2022-10-24T00:33:46.055Z,89.06
2022-10-24T00:36:17.952Z,88.85
2022-10-24T00:38:47.073Z,88.93
2022-10-24T00:41:16.978Z,88.85
2022-10-24T00:43:46.108Z,88.90
2022-10-24T00:46:16.430Z,88.99
2022-10-24T00:48:48.066Z,88.97
2022-10-24T00:51:21.370Z,89.14
2022-10-24T00:53:52.737Z,89.13
2022-10-24T00:56:25.808Z,89.32
2022-10-24T00:58:56.569Z,89.37
2022-10-24T01:01:26.274Z,89.23
2022-10-24T01:03:54.792Z,89.18
2022-10-24T01:06:36.634Z,89.07
2022-10-24T01:09:16.435Z,88.91
2022-10-24T01:11:56.313Z,88.87
2022-10-24T01:14:36.883Z,88.99
2022-10-24T01:17:13.299Z,88.96
2022-10-24T01:20:26.707Z,89.20
2022-10-24T01:23:05.821Z,89.27
2022-10-24T01:25:44.439Z,89.24
2022-10-24T01:28:15.137Z,89.31
2022-10-24T01:30:45.958Z,89.19
2022-10-24T01:33:23.070Z,89.28
2022-10-24T01:35:58.106Z,89.45
2022-10-24T01:38:33.330Z,89.63
2022-10-24T01:41:05.910Z,89.58
2022-10-24T01:43:39.571Z,89.53
2022-10-24T01:46:12.704Z,89.39
2022-10-24T01:48:45.409Z,89.43
2022-10-24T01:51:17.212Z,89.40
2022-10-24T01:53:47.536Z,89.43
2022-10-24T01:56:16.103Z,89.60
2022-10-24T01:58:45.006Z,89.59
2022-10-24T02:01:19.321Z,89.34
2022-10-24T02:03:53.491Z,89.35
2022-10-24T02:06:28.687Z,89.42
2022-10-24T02:09:01.103Z,89.33
2022-10-24T02:11:30.313Z,89.30
2022-10-24T02:14:05.603Z,89.42
2022-10-24T02:16:35.302Z,89.23
2022-10-24T02:19:04.608Z,88.98
2022-10-24T02:21:37.309Z,89.14
2022-10-24T02:24:15.234Z,89.38
2022-10-24T02:26:51.622Z,89.39
2022-10-24T02:29:27.023Z,89.44
2022-10-24T02:31:58.389Z,89.73
2022-10-24T02:34:31.788Z,89.88
2022-10-24T02:37:03.726Z,89.96
2022-10-24T02:39:34.596Z,89.88
2022-10-24T02:42:05.315Z,89.91
2022-10-24T02:44:35.134Z,89.92
2022-10-24T02:47:06.276Z,89.88
2022-10-24T02:49:34.775Z,89.78
2022-10-24T02:52:03.881Z,89.71
2022-10-24T02:54:32.729Z,89.81
2022-10-24T02:57:03.977Z,89.72
2022-10-24T02:59:32.443Z,89.87
2022-10-24T03:02:03.106Z,90.02
2022-10-24T03:04:31.772Z,90.01
2022-10-24T03:07:00.343Z,89.85
2022-10-24T03:10:02.015Z,89.85
2022-10-24T03:12:30.522Z,89.90
2022-10-24T03:14:58.899Z,89.90
2022-10-24T03:17:29.769Z,89.94
2022-10-24T03:19:58.225Z,89.83
2022-10-24T03:22:30.621Z,89.86
2022-10-24T03:25:01.567Z,89.93
2022-10-24T03:27:30.261Z,89.97
2022-10-24T03:29:58.644Z,89.61
2022-10-24T03:32:27.608Z,89.64
2022-10-24T03:34:56.097Z,89.77
2022-10-24T03:37:24.605Z,89.78
2022-10-24T03:39:52.943Z,89.84
2022-10-24T03:42:21.337Z,89.77
2022-10-24T03:44:49.809Z,89.84
2022-10-24T03:47:19.085Z,89.95
2022-10-24T03:49:47.424Z,89.82
2022-10-24T03:52:16.012Z,90.01
2022-10-24T03:54:44.595Z,90.05
2022-10-24T03:57:14.013Z,89.93
2022-10-24T03:59:42.531Z,90.07
2022-10-24T04:02:12.638Z,89.99
2022-10-24T04:04:41.726Z,89.84
2022-10-24T04:07:10.107Z,89.81
2022-10-24T04:09:38.393Z,89.78
2022-10-24T04:12:07.440Z,89.66
2022-10-24T04:14:36.372Z,89.84
2022-10-24T04:17:04.833Z,90.03
2022-10-24T04:19:33.453Z,89.94
2022-10-24T04:22:01.789Z,89.74
2022-10-24T04:24:30.327Z,89.56
2022-10-24T04:27:00.011Z,89.42
2022-10-24T04:29:28.416Z,89.30
2022-10-24T04:31:56.839Z,89.41
2022-10-24T04:34:25.172Z,89.55
2022-10-24T04:36:53.921Z,89.48
2022-10-24T04:39:22.350Z,89.40
2022-10-24T04:41:50.754Z,89.60
2022-10-24T04:44:19.140Z,89.33
2022-10-24T04:46:50.664Z,89.31
2022-10-24T04:49:20.070Z,89.38
2022-10-24T04:51:48.456Z,89.50
2022-10-24T04:54:16.836Z,89.57
2022-10-24T04:56:45.271Z,89.59
2022-10-24T04:59:15.018Z,89.28
2022-10-24T05:01:43.643Z,89.80
2022-10-24T05:04:12.306Z,89.94
2022-10-24T05:06:44.137Z,90.14
2022-10-24T05:09:13.597Z,90.05
2022-10-24T05:11:42.132Z,90.11
2022-10-24T05:14:10.772Z,90.02
2022-10-24T05:16:39.915Z,90.02
2022-10-24T05:19:08.304Z,89.80
2022-10-24T05:21:36.637Z,89.91
2022-10-24T05:24:05.414Z,89.73
2022-10-24T05:26:34.143Z,89.45
2022-10-24T05:29:02.919Z,89.61
2022-10-24T05:31:33.989Z,89.53
2022-10-24T05:34:02.432Z,89.41
2022-10-24T05:36:31.074Z,89.27
2022-10-24T05:38:59.500Z,89.27
2022-10-24T05:41:27.979Z,89.16
2022-10-24T05:43:56.476Z,89.18
2022-10-24T05:46:25.410Z,89.09
2022-10-24T05:48:54.048Z,88.97
2022-10-24T05:51:22.605Z,88.92
2022-10-24T05:53:50.953Z,88.85
2022-10-24T05:56:19.393Z,88.88
2022-10-24T05:58:50.626Z,88.80
2022-10-24T06:01:19.119Z,88.88
2022-10-24T06:03:47.476Z,88.65
2022-10-24T06:06:15.941Z,88.67
2022-10-24T06:08:44.352Z,88.82
2022-10-24T06:11:16.357Z,88.75
2022-10-24T06:13:44.936Z,88.44
2022-10-24T06:16:13.282Z,88.14
2022-10-24T06:18:42.236Z,88.76
2022-10-24T06:21:12.829Z,88.92
2022-10-24T06:23:41.216Z,89.07
2022-10-24T06:26:10.972Z,89.10
2022-10-24T06:28:40.581Z,89.38
2022-10-24T06:31:13.414Z,89.50
2022-10-24T06:33:41.875Z,89.42
2022-10-24T06:36:11.503Z,89.47
2022-10-24T06:38:40.080Z,89.31
2022-10-24T06:41:11.270Z,89.18
2022-10-24T06:43:41.862Z,89.09
2022-10-24T06:46:13.318Z,89.08
2022-10-24T06:48:42.149Z,88.97
2022-10-24T06:51:14.169Z,88.93
2022-10-24T06:53:42.783Z,88.87
2022-10-24T06:56:12.338Z,88.67
2022-10-24T06:58:41.213Z,88.72
2022-10-24T07:01:12.930Z,88.67
2022-10-24T07:03:41.630Z,88.50
2022-10-24T07:06:15.167Z,88.50
2022-10-24T07:08:43.627Z,88.46
2022-10-24T07:11:12.132Z,88.36
2022-10-24T07:13:40.817Z,88.45
2022-10-24T07:16:09.480Z,88.63
2022-10-24T07:18:38.881Z,88.89
2022-10-24T07:21:09.025Z,88.96
2022-10-24T07:23:37.399Z,88.82
2022-10-24T07:26:07.916Z,88.95
2022-10-24T07:28:38.764Z,88.96
2022-10-24T07:31:07.786Z,88.87
2022-10-24T07:33:38.581Z,88.80
2022-10-24T07:36:08.837Z,88.89
2022-10-24T07:38:37.332Z,88.93
2022-10-24T07:41:06.508Z,88.99
2022-10-24T07:43:34.897Z,89.01
2022-10-24T07:46:07.372Z,89.44
2022-10-24T07:48:37.321Z,89.38
2022-10-24T07:51:08.318Z,89.47
2022-10-24T07:53:37.382Z,89.34
2022-10-24T07:56:09.962Z,89.65
2022-10-24T07:58:38.487Z,89.58
2022-10-24T08:01:09.617Z,89.41
2022-10-24T08:03:38.415Z,89.48
2022-10-24T08:06:10.950Z,89.39
2022-10-24T08:08:40.134Z,89.32
2022-10-24T08:11:10.563Z,89.34
2022-10-24T08:13:39.611Z,89.32
2022-10-24T08:16:10.908Z,89.54
2022-10-24T08:18:40.298Z,89.51
2022-10-24T08:21:11.880Z,89.52
2022-10-24T08:23:43.426Z,89.38
2022-10-24T08:26:14.581Z,89.29
2022-10-24T08:28:43.411Z,89.73
2022-10-24T08:31:14.124Z,89.54
2022-10-24T08:33:42.945Z,89.52
2022-10-24T08:36:19.028Z,89.38
2022-10-24T08:38:47.655Z,89.47
2022-10-24T08:41:23.995Z,89.64
2022-10-24T08:43:53.638Z,89.56
2022-10-24T08:46:37.047Z,89.50
2022-10-24T08:49:16.300Z,89.42
2022-10-24T08:51:50.995Z,89.66
2022-10-24T08:54:24.689Z,89.80
2022-10-24T08:56:57.338Z,89.73
2022-10-24T08:59:28.741Z,89.77
2022-10-24T09:02:03.544Z,89.86
2022-10-24T09:04:43.334Z,89.61
2022-10-24T09:07:18.346Z,89.95
2022-10-24T09:09:50.520Z,89.88
2022-10-24T09:12:20.649Z,90.04
2022-10-24T09:14:57.688Z,90.19
2022-10-24T09:17:31.454Z,90.23
2022-10-24T09:20:06.689Z,90.21
2022-10-24T09:22:38.428Z,90.45
2022-10-24T09:25:14.791Z,90.15
2022-10-24T09:27:44.431Z,89.85
2022-10-24T09:30:18.462Z,89.58
2022-10-24T09:32:47.777Z,89.44
2022-10-24T09:35:21.197Z,89.80
2022-10-24T09:37:51.564Z,89.68
2022-10-24T09:40:23.490Z,89.27
2022-10-24T09:42:58.741Z,89.20
2022-10-24T09:45:34.104Z,89.24
2022-10-24T09:48:07.247Z,89.24
2022-10-24T09:50:36.254Z,89.04
2022-10-24T09:53:05.577Z,89.06
2022-10-24T09:55:46.308Z,89.01
2022-10-24T09:58:20.415Z,88.86
2022-10-24T10:01:01.008Z,88.71
2022-10-24T10:03:31.115Z,88.91
2022-10-24T10:06:05.082Z,88.75
2022-10-24T10:08:36.505Z,88.63
2022-10-24T10:11:08.619Z,88.48
2022-10-24T10:13:49.495Z,88.87
2022-10-24T10:16:24.713Z,88.89
2022-10-24T10:19:03.462Z,88.82
2022-10-24T10:21:55.721Z,88.57
2022-10-24T10:24:38.613Z,88.63
2022-10-24T10:27:37.084Z,88.30
2022-10-24T10:30:17.387Z,87.99
2022-10-24T10:32:56.717Z,87.69
2022-10-24T10:35:32.479Z,87.71
2022-10-24T10:38:13.687Z,87.24
2022-10-24T10:44:49.118Z,87.32
2022-10-24T10:47:34.479Z,87.25
2022-10-24T10:52:55.018Z,87.51
2022-10-24T10:55:35.084Z,87.33
2022-10-24T10:58:17.803Z,87.25
2022-10-24T11:01:00.390Z,86.93
2022-10-24T11:03:37.479Z,86.87
2022-10-24T11:06:20.093Z,86.97
2022-10-24T11:09:10.318Z,87.12
2022-10-24T11:11:42.687Z,86.52
2022-10-24T11:14:26.150Z,86.26
2022-10-24T11:17:01.377Z,86.30
2022-10-24T11:19:39.258Z,86.19
2022-10-24T11:22:15.674Z,86.36
2022-10-24T11:24:53.316Z,86.43
2022-10-24T11:27:28.448Z,86.26
2022-10-24T11:30:02.746Z,85.87
2022-10-24T11:32:38.153Z,85.70
2022-10-24T11:35:22.210Z,85.70
2022-10-24T11:37:54.221Z,85.43
2022-10-24T11:40:25.342Z,85.30
2022-10-24T11:42:58.262Z,84.99
2022-10-24T11:45:33.015Z,85.37
2022-10-24T11:48:12.729Z,85.15
2022-10-24T11:50:48.510Z,85.09
2022-10-24T11:53:39.236Z,84.78
2022-10-24T11:56:30.425Z,84.64
2022-10-24T11:59:02.808Z,84.88
2022-10-24T12:01:47.253Z,85.01
2022-10-24T12:04:38.995Z,84.85
2022-10-24T12:07:48.393Z,85.15
2022-10-24T12:10:40.823Z,85.32
2022-10-24T12:13:26.350Z,85.50
2022-10-24T12:16:02.885Z,84.90
2022-10-24T12:18:36.016Z,84.83
2022-10-24T12:21:08.708Z,84.81
2022-10-24T12:23:39.961Z,84.88
2022-10-24T12:26:18.108Z,84.66
2022-10-24T12:28:55.711Z,84.42
2022-10-24T12:31:29.181Z,84.19
2022-10-24T12:34:49.180Z,83.99
2022-10-24T12:37:36.150Z,83.83
2022-10-24T12:40:41.123Z,84.05
2022-10-24T12:43:26.401Z,84.12
2022-10-24T12:45:56.298Z,84.45
2022-10-24T12:48:33.121Z,83.92
2022-10-24T12:51:29.769Z,83.61
2022-10-24T12:54:05.269Z,83.54
2022-10-24T12:56:34.642Z,83.54
2022-10-24T12:59:17.622Z,83.89
2022-10-24T13:01:48.162Z,84.21
2022-10-24T13:04:46.159Z,84.23
2022-10-24T13:07:50.918Z,83.63
2022-10-24T13:10:39.192Z,83.51
2022-10-24T13:13:30.090Z,83.33
2022-10-24T13:16:07.343Z,83.27
2022-10-24T13:18:50.731Z,83.40
2022-10-24T13:21:26.741Z,83.38
2022-10-24T13:24:11.872Z,83.39
2022-10-24T13:26:45.858Z,83.57
2022-10-24T13:29:36.270Z,83.26
2022-10-24T13:32:30.704Z,83.35
2022-10-24T13:35:01.598Z,83.71
2022-10-24T13:37:35.168Z,83.59
2022-10-24T13:40:14.357Z,83.36
2022-10-24T13:42:51.387Z,83.40
2022-10-24T13:45:26.356Z,83.54
2022-10-24T13:48:00.662Z,83.75
2022-10-24T13:50:33.430Z,83.50
2022-10-24T13:53:13.022Z,83.60
2022-10-24T13:55:47.314Z,83.64
2022-10-24T13:58:20.574Z,83.46
2022-10-24T14:00:54.979Z,83.08
2022-10-24T14:03:26.986Z,82.81
2022-10-24T14:05:59.397Z,82.98
2022-10-24T14:08:32.265Z,82.93
2022-10-24T14:11:04.882Z,82.90
2022-10-24T14:13:38.396Z,82.79
2022-10-24T14:16:08.751Z,82.97
2022-10-24T14:18:38.986Z,82.92
2022-10-24T14:21:19.379Z,82.64
2022-10-24T14:23:56.561Z,82.39
2022-10-24T14:26:26.126Z,82.59
2022-10-24T14:28:59.853Z,82.61
2022-10-24T14:31:34.222Z,82.82
2022-10-24T14:34:05.809Z,82.43
2022-10-24T14:36:37.958Z,82.54
2022-10-24T14:39:07.394Z,82.55
2022-10-24T14:41:42.028Z,82.52
2022-10-24T14:44:15.131Z,82.43
2022-10-24T14:46:45.692Z,82.29
2022-10-24T14:49:29.667Z,82.35
2022-10-24T14:52:36.149Z,82.34
2022-10-24T14:55:17.842Z,82.43
2022-10-24T14:57:59.669Z,82.31
2022-10-24T15:00:38.060Z,82.41
2022-10-24T15:03:41.442Z,82.39
2022-10-24T15:06:21.906Z,82.48
2022-10-24T15:09:15.457Z,82.69
2022-10-24T15:12:35.553Z,82.83
2022-10-24T15:15:24.167Z,83.08
2022-10-24T15:17:56.726Z,82.95
2022-10-24T15:20:29.432Z,82.99
2022-10-24T15:22:59.834Z,83.00
2022-10-24T15:25:34.787Z,82.99
2022-10-24T15:28:07.422Z,83.11
2022-10-24T15:30:37.436Z,83.09
2022-10-24T15:33:07.061Z,83.01
2022-10-24T15:35:42.226Z,83.07
2022-10-24T15:38:15.519Z,82.99
2022-10-24T15:40:46.993Z,82.99
2022-10-24T15:43:18.974Z,82.91
2022-10-24T15:45:47.979Z,83.05
2022-10-24T15:48:17.110Z,83.08
2022-10-24T15:50:47.132Z,82.94
2022-10-24T15:53:19.682Z,83.01
2022-10-24T15:55:48.960Z,83.15
2022-10-24T15:58:18.596Z,83.21
2022-10-24T16:00:48.031Z,83.11
2022-10-24T16:03:21.808Z,83.08
2022-10-24T16:05:54.276Z,83.26
2022-10-24T16:08:23.617Z,83.12
2022-10-24T16:10:53.024Z,83.26
2022-10-24T16:14:11.231Z,83.29
2022-10-24T16:16:54.818Z,83.43
2022-10-24T16:19:25.829Z,83.51
2022-10-24T16:21:57.732Z,83.63
2022-10-24T16:24:27.456Z,83.65
2022-10-24T16:26:56.445Z,83.66
2022-10-24T16:29:25.551Z,83.82
2022-10-24T16:31:55.166Z,83.99
2022-10-24T16:34:24.701Z,83.99
2022-10-24T16:36:54.601Z,84.03
2022-10-24T16:39:23.961Z,84.29
2022-10-24T16:41:55.490Z,84.29
2022-10-24T16:44:26.730Z,84.33
2022-10-24T16:47:32.337Z,84.31
2022-10-24T16:49:59.006Z,84.35
2022-10-24T16:52:28.942Z,84.43
2022-10-24T16:54:58.341Z,84.62
2022-10-24T16:57:27.312Z,84.61
2022-10-24T16:59:59.148Z,84.45
2022-10-24T17:02:28.126Z,84.49
2022-10-24T17:05:04.308Z,84.50
2022-10-24T17:11:43.398Z,84.57
2022-10-24T17:14:05.932Z,84.59
2022-10-24T17:16:35.392Z,84.80
2022-10-24T17:19:15.530Z,84.71
2022-10-24T17:21:48.443Z,84.79
2022-10-24T17:24:54.443Z,84.81
2022-10-24T17:27:58.847Z,84.98
2022-10-24T17:30:29.370Z,85.12
2022-10-24T17:35:45.439Z,85.04
2022-10-24T17:38:28.865Z,85.14
2022-10-24T17:41:01.982Z,85.17
2022-10-24T17:43:31.319Z,85.16
2022-10-24T17:46:06.120Z,85.11
2022-10-24T17:49:03.153Z,84.98
2022-10-24T17:51:36.458Z,85.13
2022-10-24T17:54:08.612Z,85.20
2022-10-24T17:56:37.287Z,85.15
2022-10-24T17:59:16.139Z,85.05
2022-10-24T18:05:37.218Z,85.33
2022-10-24T18:08:07.143Z,85.50
2022-10-24T18:10:37.279Z,85.67
2022-10-24T18:13:09.568Z,85.58
2022-10-24T18:15:44.163Z,85.60
2022-10-24T18:18:12.690Z,85.64
2022-10-24T18:20:41.229Z,85.65
2022-10-24T18:23:09.935Z,85.75
2022-10-24T18:26:14.846Z,85.28
2022-10-24T18:28:45.945Z,85.52
2022-10-24T18:31:20.234Z,85.72
2022-10-24T18:33:49.373Z,85.81
2022-10-24T18:36:20.305Z,86.03
2022-10-24T18:38:48.726Z,86.00
2022-10-24T18:41:33.422Z,85.99
2022-10-24T18:44:21.806Z,86.27
2022-10-24T18:46:55.737Z,86.22
2022-10-24T18:49:25.859Z,86.24
2022-10-24T18:52:04.104Z,86.25
2022-10-24T18:54:39.624Z,86.17
2022-10-24T18:57:21.363Z,86.22
2022-10-24T19:00:07.912Z,85.99
2022-10-24T19:03:24.429Z,86.17
2022-10-24T19:05:58.737Z,86.18
2022-10-24T19:08:30.915Z,86.24
2022-10-24T19:11:05.824Z,85.99
2022-10-24T19:13:36.364Z,85.91
2022-10-24T19:16:18.681Z,85.93
2022-10-24T19:18:52.332Z,85.94
2022-10-24T19:21:22.468Z,85.76
2022-10-24T19:23:51.951Z,85.82
2022-10-24T19:26:20.918Z,85.84
2022-10-24T19:28:53.588Z,85.90
2022-10-24T19:31:22.108Z,85.74
2022-10-24T19:33:53.479Z,86.06
2022-10-24T19:36:22.073Z,86.45
2022-10-24T19:38:55.508Z,86.43
2022-10-24T19:41:24.272Z,86.49
2022-10-24T19:43:52.784Z,86.62
2022-10-24T19:46:21.363Z,86.65
2022-10-24T19:48:51.242Z,86.73
2022-10-24T19:51:32.977Z,86.69
2022-10-24T19:54:01.364Z,86.44
2022-10-24T19:56:30.907Z,86.36
2022-10-24T19:58:59.862Z,86.38
2022-10-24T20:01:29.766Z,86.39
2022-10-24T20:04:03.162Z,86.44
2022-10-24T20:06:31.922Z,86.43
2022-10-24T20:09:00.686Z,86.39
2022-10-24T20:11:29.728Z,86.33
2022-10-24T20:13:58.206Z,86.16
2022-10-24T20:16:26.589Z,86.24
2022-10-24T20:18:55.296Z,86.22
2022-10-24T20:21:23.723Z,86.11
2022-10-24T20:23:55.215Z,86.26
2022-10-24T20:26:28.581Z,86.29
2022-10-24T20:28:58.489Z,86.29
2022-10-24T20:31:29.846Z,86.34
2022-10-24T20:34:05.030Z,86.30
2022-10-24T20:36:37.979Z,86.25
2022-10-24T20:39:07.663Z,86.23
2022-10-24T20:41:37.346Z,86.13
2022-10-24T20:44:06.421Z,86.16
2022-10-24T20:47:35.570Z,86.11
2022-10-24T20:50:05.297Z,86.16
2022-10-24T20:52:34.107Z,86.24
2022-10-24T20:55:07.696Z,86.40
2022-10-24T20:57:43.302Z,86.47
2022-10-24T21:00:13.988Z,86.21
2022-10-24T21:02:42.358Z,86.13
2022-10-24T21:05:11.405Z,86.49
2022-10-24T21:07:40.116Z,86.31
2022-10-24T21:10:09.581Z,86.13
2022-10-24T21:12:37.939Z,86.19
2022-10-24T21:15:07.887Z,86.31
2022-10-24T21:17:36.552Z,86.39
2022-10-24T21:20:06.370Z,86.34
2022-10-24T21:22:34.676Z,86.35
2022-10-24T21:25:03.193Z,86.37
2022-10-24T21:27:32.185Z,86.56
2022-10-24T21:30:00.538Z,86.58
2022-10-24T21:32:28.955Z,86.89
2022-10-24T21:34:57.629Z,86.98
2022-10-24T21:37:26.108Z,86.80
2022-10-24T21:39:54.459Z,86.63
2022-10-24T21:44:56.261Z,86.89
2022-10-24T21:47:24.756Z,87.05
2022-10-24T21:49:53.092Z,87.34
2022-10-24T21:52:21.553Z,87.37
2022-10-24T21:54:49.857Z,87.38
2022-10-24T21:57:18.197Z,87.58
2022-10-24T21:59:46.686Z,87.31
2022-10-24T22:02:15.114Z,87.33
2022-10-24T22:04:43.682Z,87.00
2022-10-24T22:07:12.061Z,87.06
2022-10-24T22:09:40.407Z,87.33
2022-10-24T22:12:08.951Z,87.65
2022-10-24T22:14:37.314Z,87.83
2022-10-24T22:17:06.066Z,87.59
2022-10-24T22:19:34.455Z,87.35
2022-10-24T22:22:02.811Z,87.41
2022-10-24T22:24:31.160Z,87.41
2022-10-24T22:26:59.469Z,87.20
2022-10-24T22:29:28.128Z,86.87
2022-10-24T22:31:57.648Z,86.92
2022-10-24T22:34:27.872Z,86.91
2022-10-24T22:37:08.336Z,86.71
2022-10-24T22:39:38.069Z,86.69
2022-10-24T22:42:08.694Z,86.75
2022-10-24T22:44:38.181Z,86.58
2022-10-24T22:47:46.432Z,86.70
2022-10-24T22:50:35.241Z,86.55
2022-10-24T22:53:04.914Z,86.83
2022-10-24T22:55:38.292Z,86.57
2022-10-24T22:58:07.729Z,86.72
2022-10-24T23:00:37.249Z,86.77
2022-10-24T23:03:15.393Z,87.04
2022-10-24T23:05:48.644Z,87.05
2022-10-24T23:08:30.485Z,86.97
2022-10-24T23:10:59.873Z,87.05
2022-10-24T23:13:29.985Z,87.03
2022-10-24T23:16:05.985Z,87.20
2022-10-24T23:18:35.554Z,87.25
2022-10-24T23:21:16.938Z,87.15
2022-10-24T23:23:46.314Z,87.23
2022-10-24T23:26:26.527Z,87.31
2022-10-24T23:29:02.644Z,87.42
2022-10-24T23:31:31.924Z,87.41
2022-10-24T23:34:01.295Z,87.23
2022-10-24T23:36:30.778Z,87.18
2022-10-24T23:39:00.127Z,86.91
2022-10-24T23:41:29.532Z,86.92
2022-10-24T23:43:58.835Z,86.72
2022-10-24T23:46:34.494Z,86.65
2022-10-24T23:49:22.450Z,86.53
2022-10-24T23:52:00.345Z,86.64
2022-10-24T23:54:32.423Z,86.55
2022-10-24T23:57:01.782Z,86.64
2022-10-24T23:59:30.109Z,86.79
